createdAt,value
2018-10-09T00:01:58.009Z,12.70
2018-10-09T00:04:25.683Z,12.80
2018-10-09T00:06:53.339Z,12.80
2018-10-09T00:09:20.987Z,12.80
2018-10-09T00:11:48.714Z,12.90
2018-10-09T00:14:16.597Z,12.90
2018-10-09T00:16:44.628Z,12.80
2018-10-09T00:19:12.747Z,12.80
2018-10-09T00:21:40.852Z,12.60
2018-10-09T00:24:08.950Z,12.60
2018-10-09T00:26:37.353Z,12.60
2018-10-09T00:29:05.633Z,12.70
2018-10-09T00:31:33.521Z,12.60
2018-10-09T00:34:01.253Z,12.60
2018-10-09T00:36:28.981Z,12.60
2018-10-09T00:38:56.901Z,12.60
2018-10-09T00:41:24.631Z,12.60
2018-10-09T00:43:53.324Z,12.60
2018-10-09T00:46:21.100Z,12.60
2018-10-09T00:48:50.201Z,12.70
2018-10-09T00:51:17.983Z,12.60
2018-10-09T00:53:45.930Z,12.50
2018-10-09T00:56:14.260Z,12.50
2018-10-09T00:58:42.125Z,12.50
2018-10-09T01:01:11.038Z,12.40
2018-10-09T01:03:39.522Z,12.50
2018-10-09T01:06:09.056Z,12.50
2018-10-09T01:08:38.436Z,12.40
2018-10-09T01:11:06.549Z,12.20
2018-10-09T01:13:35.386Z,12.30
2018-10-09T01:16:04.236Z,12.20
2018-10-09T01:18:32.746Z,12.10
2018-10-09T01:21:00.667Z,12.00
2018-10-09T01:23:28.487Z,11.90
2018-10-09T01:25:56.237Z,11.90
2018-10-09T01:28:24.507Z,11.80
2018-10-09T01:30:52.535Z,11.90
2018-10-09T01:33:20.450Z,11.90
2018-10-09T01:35:48.381Z,11.80
2018-10-09T01:38:16.388Z,11.80
2018-10-09T01:40:44.288Z,11.80
2018-10-09T01:43:12.376Z,11.80
2018-10-09T01:45:40.284Z,11.90
2018-10-09T01:48:09.004Z,11.80
2018-10-09T01:50:37.088Z,11.70
2018-10-09T01:53:05.090Z,11.70
2018-10-09T01:55:32.836Z,11.70
2018-10-09T01:58:00.505Z,11.80
2018-10-09T02:00:28.275Z,11.90
2018-10-09T02:02:56.025Z,11.90
2018-10-09T02:05:23.729Z,12.00
2018-10-09T02:07:51.811Z,12.10
2018-10-09T02:10:19.842Z,12.10
2018-10-09T02:12:47.717Z,12.10
2018-10-09T02:15:15.409Z,12.00
2018-10-09T02:17:43.173Z,11.90
2018-10-09T02:20:11.273Z,12.00
2018-10-09T02:22:39.433Z,12.10
2018-10-09T02:25:07.572Z,12.00
2018-10-09T02:27:35.622Z,12.00
2018-10-09T02:30:04.276Z,12.00
2018-10-09T02:32:32.169Z,12.10
2018-10-09T02:34:59.836Z,12.10
2018-10-09T02:37:27.605Z,12.10
2018-10-09T02:39:55.873Z,12.00
2018-10-09T02:42:23.938Z,12.10
2018-10-09T02:44:52.058Z,12.00
2018-10-09T02:47:20.066Z,12.10
2018-10-09T02:49:48.182Z,12.00
2018-10-09T02:52:16.332Z,11.90
2018-10-09T02:54:44.097Z,11.90
2018-10-09T02:57:12.061Z,12.00
2018-10-09T02:59:39.920Z,12.10
2018-10-09T03:02:07.606Z,12.10
2018-10-09T03:04:35.408Z,12.10
2018-10-09T03:07:03.168Z,12.20
2018-10-09T03:09:30.908Z,12.20
2018-10-09T03:11:58.589Z,12.20
2018-10-09T03:14:26.276Z,12.30
2018-10-09T03:16:53.975Z,12.30
2018-10-09T03:19:21.650Z,12.30
2018-10-09T03:21:49.313Z,12.20
2018-10-09T03:24:17.043Z,12.10
2018-10-09T03:26:44.772Z,12.00
2018-10-09T03:29:12.416Z,11.70
2018-10-09T03:31:40.118Z,11.80
2018-10-09T03:34:08.022Z,11.90
2018-10-09T03:36:35.742Z,11.90
2018-10-09T03:39:05.326Z,12.00
2018-10-09T03:41:33.452Z,11.90
2018-10-09T03:44:01.547Z,12.00
2018-10-09T03:46:29.788Z,12.00
2018-10-09T03:48:58.757Z,12.10
2018-10-09T03:54:00.896Z,12.10
2018-10-09T03:56:28.625Z,12.10
2018-10-09T03:58:56.426Z,12.10
2018-10-09T04:01:24.301Z,12.00
2018-10-09T04:03:52.554Z,12.00
2018-10-09T04:06:20.734Z,12.00
2018-10-09T04:08:48.821Z,11.90
2018-10-09T04:11:17.918Z,11.80
2018-10-09T04:13:45.964Z,11.90
2018-10-09T04:16:14.210Z,11.90
2018-10-09T04:18:43.019Z,11.90
2018-10-09T04:21:10.954Z,11.90
2018-10-09T04:23:39.461Z,11.90
2018-10-09T04:26:08.231Z,11.90
2018-10-09T04:28:36.705Z,11.90
2018-10-09T04:31:05.006Z,11.80
2018-10-09T04:33:33.560Z,11.80
2018-10-09T04:36:04.469Z,11.90
2018-10-09T04:38:32.765Z,11.90
2018-10-09T04:41:01.046Z,11.80
2018-10-09T04:43:30.167Z,11.90
2018-10-09T04:45:58.574Z,11.90
2018-10-09T04:48:28.850Z,11.90
2018-10-09T04:50:57.182Z,11.90
2018-10-09T04:53:25.553Z,11.90
2018-10-09T04:55:54.437Z,11.90
2018-10-09T04:58:22.821Z,11.90
2018-10-09T05:00:52.503Z,11.90
2018-10-09T05:03:21.690Z,12.00
2018-10-09T05:06:01.843Z,11.80
2018-10-09T05:08:30.754Z,11.90
2018-10-09T05:10:58.535Z,12.00
2018-10-09T05:13:28.214Z,12.00
2018-10-09T05:15:56.961Z,11.90
2018-10-09T05:18:25.129Z,11.90
2018-10-09T05:20:54.249Z,11.80
2018-10-09T05:23:22.935Z,11.90
2018-10-09T05:25:51.130Z,11.90
2018-10-09T05:28:19.575Z,12.10
2018-10-09T05:30:47.452Z,12.10
2018-10-09T05:33:15.257Z,12.10
2018-10-09T05:35:43.308Z,12.20
2018-10-09T05:38:11.519Z,12.20
2018-10-09T05:40:40.505Z,12.20
2018-10-09T05:43:08.634Z,12.20
2018-10-09T05:45:39.445Z,12.20
2018-10-09T05:48:08.174Z,12.30
2018-10-09T05:50:36.534Z,12.30
2018-10-09T05:53:05.092Z,12.30
2018-10-09T05:55:33.490Z,12.10
2018-10-09T05:58:01.455Z,12.00
2018-10-09T06:00:29.774Z,12.10
2018-10-09T06:02:57.853Z,12.10
2018-10-09T06:05:26.009Z,12.00
2018-10-09T06:07:55.142Z,11.90
2018-10-09T06:10:23.212Z,11.90
2018-10-09T06:12:51.433Z,12.00
2018-10-09T06:15:20.599Z,12.00
2018-10-09T06:17:48.360Z,12.10
2018-10-09T06:20:16.342Z,12.20
2018-10-09T06:22:44.391Z,12.40
2018-10-09T06:25:13.155Z,12.50
2018-10-09T06:27:41.321Z,12.60
2018-10-09T06:30:09.378Z,12.70
2018-10-09T06:32:38.265Z,12.70
2018-10-09T06:35:06.197Z,12.70
2018-10-09T06:37:34.342Z,12.80
2018-10-09T06:40:02.284Z,12.80
2018-10-09T06:42:30.280Z,12.80
2018-10-09T06:44:58.105Z,12.80
2018-10-09T06:47:26.799Z,12.90
2018-10-09T06:49:54.543Z,12.90
2018-10-09T06:52:23.191Z,12.90
2018-10-09T06:54:51.179Z,12.90
2018-10-09T06:57:19.083Z,12.90
2018-10-09T06:59:47.623Z,12.90
2018-10-09T07:02:15.745Z,13.00
2018-10-09T07:04:43.799Z,13.10
2018-10-09T07:07:15.271Z,13.30
2018-10-09T07:09:43.320Z,13.40
2018-10-09T07:12:11.626Z,13.50
2018-10-09T07:14:39.930Z,13.50
2018-10-09T07:17:08.295Z,13.40
2018-10-09T07:19:36.154Z,13.30
2018-10-09T07:22:04.010Z,13.30
2018-10-09T07:24:32.092Z,13.50
2018-10-09T07:27:00.048Z,13.60
2018-10-09T07:29:27.925Z,13.50
2018-10-09T07:31:56.023Z,13.30
2018-10-09T07:34:24.063Z,13.40
2018-10-09T07:36:52.130Z,13.50
2018-10-09T07:39:20.018Z,13.50
2018-10-09T07:41:48.298Z,13.50
2018-10-09T07:44:16.681Z,13.60
2018-10-09T07:46:44.846Z,13.80
2018-10-09T07:49:12.761Z,13.90
2018-10-09T07:51:40.471Z,13.90
2018-10-09T07:54:08.238Z,14.10
2018-10-09T07:56:36.225Z,13.90
2018-10-09T07:59:03.961Z,13.90
2018-10-09T08:01:31.716Z,13.90
2018-10-09T08:03:59.409Z,14.00
2018-10-09T08:06:28.004Z,13.90
2018-10-09T08:08:55.776Z,14.00
2018-10-09T08:11:23.559Z,14.00
2018-10-09T08:13:51.654Z,14.00
2018-10-09T08:16:19.591Z,14.20
2018-10-09T08:18:47.273Z,14.30
2018-10-09T08:21:15.503Z,14.00
2018-10-09T08:23:43.242Z,14.10
2018-10-09T08:26:11.074Z,14.30
2018-10-09T08:28:38.922Z,14.40
2018-10-09T08:31:06.770Z,14.40
2018-10-09T08:33:34.493Z,14.60
2018-10-09T08:36:02.156Z,14.50
2018-10-09T08:38:29.798Z,14.50
2018-10-09T08:40:57.561Z,14.50
2018-10-09T08:43:25.194Z,14.60
2018-10-09T08:45:52.836Z,14.60
2018-10-09T08:48:20.563Z,14.80
2018-10-09T08:50:48.121Z,14.90
2018-10-09T08:53:15.927Z,15.00
2018-10-09T08:55:43.563Z,15.20
2018-10-09T08:58:11.247Z,15.50
2018-10-09T09:00:38.925Z,15.90
2018-10-09T09:03:06.731Z,16.20
2018-10-09T09:05:34.438Z,16.30
2018-10-09T09:08:02.121Z,16.60
2018-10-09T09:10:29.801Z,16.80
2018-10-09T09:12:57.474Z,17.10
2018-10-09T09:15:25.587Z,17.40
2018-10-09T09:17:53.469Z,17.70
2018-10-09T09:20:21.469Z,17.70
2018-10-09T09:22:49.443Z,18.00
2018-10-09T09:25:17.730Z,18.30
2018-10-09T09:27:45.765Z,18.50
2018-10-09T09:30:14.778Z,18.50
2018-10-09T09:32:42.513Z,18.50
2018-10-09T09:35:11.226Z,18.60
2018-10-09T09:37:39.053Z,18.70
2018-10-09T09:40:07.409Z,18.50
2018-10-09T09:42:35.217Z,18.40
2018-10-09T09:45:03.290Z,18.30
2018-10-09T09:47:31.558Z,18.30
2018-10-09T09:49:59.629Z,18.40
2018-10-09T09:52:27.322Z,18.50
2018-10-09T09:54:55.293Z,18.70
2018-10-09T09:57:23.625Z,18.90
2018-10-09T09:59:52.013Z,19.10
2018-10-09T10:02:19.695Z,19.40
2018-10-09T10:04:47.426Z,19.70
2018-10-09T10:07:15.166Z,19.90
2018-10-09T10:09:42.937Z,19.90
2018-10-09T10:12:10.670Z,20.00
2018-10-09T10:14:38.337Z,20.30
2018-10-09T10:17:06.100Z,20.60
2018-10-09T10:19:34.056Z,20.80
2018-10-09T10:22:01.874Z,20.70
2018-10-09T10:24:29.750Z,20.80
2018-10-09T10:26:57.470Z,20.80
2018-10-09T10:29:25.162Z,20.80
2018-10-09T10:31:52.826Z,20.90
2018-10-09T10:34:21.087Z,21.10
2018-10-09T10:36:48.915Z,21.30
2018-10-09T10:39:16.522Z,21.30
2018-10-09T10:41:44.209Z,21.40
2018-10-09T10:44:11.962Z,21.60
2018-10-09T10:46:41.005Z,21.80
2018-10-09T10:49:11.932Z,21.80
2018-10-09T10:51:39.568Z,21.70
2018-10-09T10:54:07.325Z,21.70
2018-10-09T10:56:35.469Z,21.70
2018-10-09T10:59:03.963Z,21.60
2018-10-09T11:01:31.739Z,21.90
2018-10-09T11:03:59.390Z,22.20
2018-10-09T11:09:07.481Z,21.80
2018-10-09T11:11:35.127Z,21.70
2018-10-09T11:14:02.802Z,21.60
2018-10-09T11:16:30.514Z,21.60
2018-10-09T11:18:58.423Z,21.50
2018-10-09T11:21:26.163Z,21.50
2018-10-09T11:23:53.759Z,21.40
2018-10-09T11:26:22.407Z,21.40
2018-10-09T11:28:50.350Z,21.40
2018-10-09T11:31:18.158Z,21.30
2018-10-09T11:33:45.821Z,21.40
2018-10-09T11:36:13.554Z,21.50
2018-10-09T11:38:41.501Z,21.30
2018-10-09T11:41:09.149Z,21.10
2018-10-09T11:43:36.894Z,21.00
2018-10-09T11:46:04.561Z,21.20
2018-10-09T11:48:32.286Z,21.50
2018-10-09T11:51:00.018Z,21.80
2018-10-09T11:53:27.732Z,21.90
2018-10-09T11:55:55.449Z,22.00
2018-10-09T11:58:23.093Z,22.00
2018-10-09T12:00:52.633Z,22.20
2018-10-09T12:03:20.378Z,22.20
2018-10-09T12:05:48.352Z,22.20
2018-10-09T12:08:16.113Z,22.30
2018-10-09T12:10:43.893Z,22.10
2018-10-09T12:13:11.640Z,22.00
2018-10-09T12:15:39.329Z,22.10
2018-10-09T12:18:06.987Z,21.90
2018-10-09T12:20:34.697Z,21.90
2018-10-09T12:23:02.341Z,21.90
2018-10-09T12:25:30.149Z,22.00
2018-10-09T12:27:57.807Z,22.20
2018-10-09T12:30:25.489Z,22.20
2018-10-09T12:32:53.256Z,22.30
2018-10-09T12:35:20.889Z,22.50
2018-10-09T12:37:48.562Z,22.70
2018-10-09T12:40:16.186Z,22.90
2018-10-09T12:42:43.808Z,22.90
2018-10-09T12:45:12.277Z,22.80
2018-10-09T12:47:40.144Z,22.80
2018-10-09T12:50:08.143Z,22.80
2018-10-09T12:52:36.389Z,22.70
2018-10-09T12:55:04.675Z,22.60
2018-10-09T12:57:32.591Z,22.60
2018-10-09T13:00:00.644Z,22.70
2018-10-09T13:02:28.524Z,22.60
2018-10-09T13:04:56.525Z,22.70
2018-10-09T13:07:24.318Z,22.80
2018-10-09T13:09:52.058Z,22.90
2018-10-09T13:12:19.815Z,22.80
2018-10-09T13:14:47.590Z,22.80
2018-10-09T13:17:15.401Z,23.00
2018-10-09T13:19:44.010Z,23.10
2018-10-09T13:22:12.248Z,23.10
2018-10-09T13:24:39.662Z,23.10
2018-10-09T13:27:07.763Z,23.30
2018-10-09T13:29:35.715Z,23.20
2018-10-09T13:32:03.462Z,23.00
2018-10-09T13:34:31.231Z,23.00
2018-10-09T13:36:59.326Z,22.90
2018-10-09T13:39:26.971Z,22.90
2018-10-09T13:41:54.644Z,22.90
2018-10-09T13:44:23.053Z,22.80
2018-10-09T13:46:51.070Z,22.90
2018-10-09T13:49:18.966Z,23.00
2018-10-09T13:51:46.714Z,23.00
2018-10-09T13:54:14.385Z,23.00
2018-10-09T13:56:41.973Z,23.10
2018-10-09T13:59:09.910Z,23.20
2018-10-09T14:01:37.778Z,23.10
2018-10-09T14:04:05.501Z,23.10
2018-10-09T14:06:33.167Z,23.10
2018-10-09T14:09:00.758Z,23.30
2018-10-09T14:11:28.723Z,23.20
2018-10-09T14:14:03.375Z,23.20
2018-10-09T14:16:31.155Z,23.20
2018-10-09T14:18:58.889Z,23.30
2018-10-09T14:21:26.623Z,23.30
2018-10-09T14:23:55.129Z,23.20
2018-10-09T14:26:22.770Z,23.20
2018-10-09T14:28:50.467Z,23.20
2018-10-09T14:31:18.195Z,23.30
2018-10-09T14:33:45.961Z,23.40
2018-10-09T14:36:13.616Z,23.30
2018-10-09T14:38:41.356Z,23.20
2018-10-09T14:41:09.154Z,23.20
2018-10-09T14:43:36.898Z,23.10
2018-10-09T14:46:04.590Z,23.00
2018-10-09T14:48:32.268Z,23.00
2018-10-09T14:50:59.890Z,23.10
2018-10-09T14:53:27.508Z,22.90
2018-10-09T14:55:55.180Z,22.80
2018-10-09T14:58:22.912Z,22.70
2018-10-09T15:00:50.605Z,22.80
2018-10-09T15:03:18.534Z,22.80
2018-10-09T15:05:46.453Z,22.80
2018-10-09T15:08:14.342Z,22.70
2018-10-09T15:10:42.070Z,22.50
2018-10-09T15:13:09.922Z,22.40
2018-10-09T15:15:37.557Z,22.40
2018-10-09T15:18:05.354Z,22.30
2018-10-09T15:20:32.924Z,22.20
2018-10-09T15:23:00.685Z,22.10
2018-10-09T15:25:28.334Z,21.90
2018-10-09T15:27:56.099Z,21.70
2018-10-09T15:30:23.803Z,21.50
2018-10-09T15:32:51.475Z,21.40
2018-10-09T15:35:19.160Z,21.20
2018-10-09T15:37:46.878Z,21.10
2018-10-09T15:40:14.609Z,21.10
2018-10-09T15:42:42.329Z,21.00
2018-10-09T15:45:09.933Z,20.80
2018-10-09T15:47:37.691Z,20.60
2018-10-09T15:50:05.867Z,20.50
2018-10-09T15:52:33.554Z,20.40
2018-10-09T15:55:01.161Z,20.30
2018-10-09T15:57:28.814Z,20.30
2018-10-09T15:59:56.897Z,20.20
2018-10-09T16:02:24.669Z,20.20
2018-10-09T16:04:52.397Z,20.10
2018-10-09T16:07:20.159Z,19.90
2018-10-09T16:09:47.874Z,19.90
2018-10-09T16:12:15.801Z,19.80
2018-10-09T16:14:43.781Z,19.80
2018-10-09T16:17:11.646Z,19.70
2018-10-09T16:19:39.426Z,19.60
2018-10-09T16:22:07.160Z,19.50
2018-10-09T16:24:35.041Z,19.50
2018-10-09T16:27:02.808Z,19.40
2018-10-09T16:29:30.420Z,19.50
2018-10-09T16:31:58.157Z,19.30
2018-10-09T16:34:26.054Z,19.30
2018-10-09T16:36:53.863Z,19.30
2018-10-09T16:39:21.846Z,19.30
2018-10-09T16:41:49.812Z,19.30
2018-10-09T16:44:17.694Z,19.20
2018-10-09T16:46:45.706Z,19.10
2018-10-09T16:49:13.349Z,19.00
2018-10-09T16:51:41.186Z,18.90
2018-10-09T16:54:12.138Z,18.60
2018-10-09T16:56:41.178Z,18.60
2018-10-09T16:59:09.954Z,18.40
2018-10-09T17:01:38.026Z,18.40
2018-10-09T17:04:06.005Z,18.20
2018-10-09T17:06:33.973Z,18.10
2018-10-09T17:09:08.708Z,17.90
2018-10-09T17:11:37.746Z,17.70
2018-10-09T17:14:09.108Z,17.60
2018-10-09T17:16:45.383Z,17.60
2018-10-09T17:19:14.137Z,17.60
2018-10-09T17:21:43.556Z,17.40
2018-10-09T17:24:19.229Z,17.20
2018-10-09T17:26:49.856Z,17.20
2018-10-09T17:29:19.684Z,17.10
2018-10-09T17:31:50.034Z,17.10
2018-10-09T17:34:19.145Z,17.10
2018-10-09T17:36:47.615Z,17.10
2018-10-09T17:39:18.163Z,17.00
2018-10-09T17:42:00.675Z,17.00
2018-10-09T17:44:33.038Z,16.90
2018-10-09T17:47:05.260Z,16.70
2018-10-09T17:49:41.159Z,16.70
2018-10-09T17:52:13.553Z,16.50
2018-10-09T17:54:42.399Z,16.40
2018-10-09T17:57:12.357Z,16.40
2018-10-09T17:59:56.734Z,16.20
2018-10-09T18:02:28.790Z,16.10
2018-10-09T18:04:59.282Z,16.00
2018-10-09T18:07:28.010Z,16.10
2018-10-09T18:09:58.367Z,16.10
2018-10-09T18:12:26.394Z,16.00
2018-10-09T18:14:54.185Z,15.90
2018-10-09T18:17:23.297Z,15.90
2018-10-09T18:19:51.173Z,15.90
2018-10-09T18:22:18.953Z,16.00
2018-10-09T18:24:47.738Z,16.00
2018-10-09T18:27:18.796Z,16.00
2018-10-09T18:29:46.838Z,16.00
2018-10-09T18:32:14.634Z,16.10
2018-10-09T18:34:42.513Z,16.10
2018-10-09T18:37:10.173Z,16.10
2018-10-09T18:39:38.099Z,16.10
2018-10-09T18:42:06.382Z,16.10
2018-10-09T18:44:34.563Z,16.10
2018-10-09T18:47:03.144Z,15.90
2018-10-09T18:49:31.292Z,15.80
2018-10-09T18:51:59.279Z,15.90
2018-10-09T18:54:28.181Z,15.80
2018-10-09T18:56:56.154Z,15.80
2018-10-09T18:59:23.973Z,15.80
2018-10-09T19:01:52.260Z,15.50
2018-10-09T19:04:22.172Z,15.40
2018-10-09T19:06:54.941Z,15.30
2018-10-09T19:09:23.209Z,15.20
2018-10-09T19:11:51.183Z,15.20
2018-10-09T19:14:19.307Z,15.10
2018-10-09T19:16:47.214Z,14.90
2018-10-09T19:19:15.145Z,14.90
2018-10-09T19:21:43.119Z,15.00
2018-10-09T19:24:11.075Z,15.10
2018-10-09T19:26:39.302Z,15.10
2018-10-09T19:29:07.268Z,15.20
2018-10-09T19:31:35.403Z,15.30
2018-10-09T19:34:03.223Z,15.30
2018-10-09T19:36:31.065Z,15.40
2018-10-09T19:38:59.062Z,15.40
2018-10-09T19:41:26.690Z,15.40
2018-10-09T19:43:55.579Z,15.40
2018-10-09T19:46:24.471Z,15.50
2018-10-09T19:48:52.183Z,15.50
2018-10-09T19:51:19.977Z,15.50
2018-10-09T19:53:47.606Z,15.50
2018-10-09T19:56:15.339Z,15.50
2018-10-09T19:58:43.383Z,15.50
2018-10-09T20:01:15.030Z,15.50
2018-10-09T20:03:43.321Z,15.50
2018-10-09T20:06:11.520Z,15.60
2018-10-09T20:08:40.031Z,15.70
2018-10-09T20:11:07.967Z,15.70
2018-10-09T20:13:37.598Z,15.70
2018-10-09T20:16:06.803Z,15.70
2018-10-09T20:18:38.489Z,15.70
2018-10-09T20:22:11.116Z,15.80
2018-10-09T20:24:39.022Z,15.70
2018-10-09T20:27:07.345Z,15.80
2018-10-09T20:29:36.125Z,15.70
2018-10-09T20:32:04.635Z,15.60
2018-10-09T20:34:32.491Z,15.50
2018-10-09T20:37:00.223Z,15.50
2018-10-09T20:39:33.419Z,15.40
2018-10-09T20:42:01.605Z,15.30
2018-10-09T20:44:29.925Z,15.20
2018-10-09T20:46:58.841Z,15.10
2018-10-09T20:49:26.717Z,15.10
2018-10-09T20:51:54.594Z,15.10
2018-10-09T20:54:22.146Z,15.10
2018-10-09T20:56:49.823Z,15.10
2018-10-09T20:59:17.646Z,15.10
2018-10-09T21:01:45.691Z,15.00
2018-10-09T21:04:13.534Z,15.00
2018-10-09T21:06:42.129Z,15.00
2018-10-09T21:09:09.810Z,14.90
2018-10-09T21:11:37.422Z,14.90
2018-10-09T21:14:05.224Z,14.90
2018-10-09T21:16:33.001Z,14.90
2018-10-09T21:19:00.658Z,14.70
2018-10-09T21:21:28.640Z,14.60
2018-10-09T21:23:56.584Z,14.60
2018-10-09T21:26:24.500Z,14.50
2018-10-09T21:28:52.545Z,14.40
2018-10-09T21:31:20.629Z,14.50
2018-10-09T21:33:49.543Z,14.40
2018-10-09T21:36:17.469Z,14.40
2018-10-09T21:38:45.101Z,14.50
2018-10-09T21:41:12.821Z,14.50
2018-10-09T21:43:40.573Z,14.50
2018-10-09T21:46:09.134Z,14.60
2018-10-09T21:48:36.858Z,14.50
2018-10-09T21:51:04.995Z,14.50
2018-10-09T21:53:32.814Z,14.40
2018-10-09T21:56:01.152Z,14.40
2018-10-09T21:58:28.916Z,14.40
2018-10-09T22:01:02.209Z,14.50
2018-10-09T22:03:29.794Z,14.50
2018-10-09T22:05:57.421Z,14.40
2018-10-09T22:08:25.050Z,14.40
2018-10-09T22:10:54.451Z,14.40
2018-10-09T22:13:22.197Z,14.30
2018-10-09T22:15:50.038Z,14.30
2018-10-09T22:18:17.613Z,14.20
2018-10-09T22:20:45.260Z,14.20
2018-10-09T22:23:12.937Z,14.20
2018-10-09T22:25:40.987Z,14.20
2018-10-09T22:28:12.908Z,14.20
2018-10-09T22:30:41.324Z,14.00
2018-10-09T22:33:09.355Z,13.80
2018-10-09T22:35:37.346Z,13.90
2018-10-09T22:38:05.525Z,13.80
2018-10-09T22:40:33.173Z,13.70
2018-10-09T22:43:00.769Z,13.70
2018-10-09T22:45:28.434Z,13.60
2018-10-09T22:47:56.163Z,13.70
2018-10-09T22:50:23.802Z,13.70
2018-10-09T22:52:51.533Z,13.50
2018-10-09T22:55:19.131Z,13.50
2018-10-09T22:57:47.221Z,13.60
2018-10-09T23:00:15.306Z,13.50
2018-10-09T23:02:43.783Z,13.50
2018-10-09T23:05:11.450Z,13.50
2018-10-09T23:07:39.928Z,13.50
2018-10-09T23:10:07.982Z,13.50
2018-10-09T23:12:35.729Z,13.50
2018-10-09T23:15:03.902Z,13.50
2018-10-09T23:17:31.565Z,13.50
2018-10-09T23:19:59.837Z,13.40
2018-10-09T23:22:27.925Z,13.30
2018-10-09T23:24:55.870Z,13.30
2018-10-09T23:27:24.614Z,13.20
2018-10-09T23:29:52.933Z,13.30
2018-10-09T23:32:20.764Z,13.30
2018-10-09T23:34:48.782Z,13.10
2018-10-09T23:37:16.597Z,12.90
2018-10-09T23:39:44.334Z,12.80
2018-10-09T23:42:12.118Z,12.80
2018-10-09T23:44:40.128Z,12.90
2018-10-09T23:47:08.369Z,12.90
2018-10-09T23:49:36.167Z,12.90
2018-10-09T23:52:04.244Z,12.90
2018-10-09T23:54:32.426Z,12.90
2018-10-09T23:57:00.524Z,13.00
2018-10-09T23:59:28.619Z,12.90
